Haigler, Nebraska
Current Conditions -  °F | °C
As of 5:35 PM on Saturday 20 Dec 2014 (Local Time) from K2V5 Reporting Station
Scattered Clouds Scattered Clouds  
Wind Chill: 33°   Ceiling: Unl
Heat Index: 37°   Visibility: 10mi
Dew Point: 31°   Wind: 5mph
Humidity: 81%   Direction: 220°SW
Pressure: 29.96"   Gusts: NA
Location:  40.01°N, 101.94°W
Report Text: K2V5 210035Z AUTO 22004KT 10SM SCT100 03/00 A2996 RMK AO2 T00251004
Loading
Personal Weather Stations






























Interactive Weather Map New forecast layout! Learn more

10-Day Weather Forecast

Advertisements
Track Severe Weather on mobile